This is the latest recevied weather packets stored in our database for station/object KN6CW-3. If no packets are shown the sender has not sent any weather packets the latest 1 day(s).
| Time | Temp. | Humidity | Pressure | Rain* | Wind** | Luminosity | Snow |
|---|---|---|---|---|---|---|---|
| 1836274843 | 13.89° C | 77% | 1019.1 hPa | 0 mm | 0.45 m/s, 320° | 0 W/m² | - |
| 1836274542 | 13.89° C | 77% | 1019 hPa | 0 mm | 0.45 m/s, 280° | 0 W/m² | - |
| 1836274242 | 14.44° C | 77% | 1018.9 hPa | 0 mm | 0.45 m/s, 331° | 0 W/m² | - |
| 1836273941 | 14.44° C | 76% | 1018.8 hPa | 0 mm | 0.45 m/s, 279° | 0 W/m² | - |
| 1778045103 | 17.22° C | 62% | 1008 hPa | 0 mm | 1.79 m/s, 213° | 0 W/m² | - |
| 1778044803 | 17.22° C | 61% | 1007.9 hPa | 0 mm | 2.24 m/s, 199° | 0 W/m² | - |
| 1778044502 | 17.22° C | 61% | 1008 hPa | 0 mm | 2.24 m/s, 190° | 0 W/m² | - |
| 1778044202 | 17.22° C | 61% | 1008 hPa | 0 mm | 2.24 m/s, 211° | 0 W/m² | - |
| 1778043902 | 17.22° C | 61% | 1008 hPa | 0 mm | 1.79 m/s, 214° | 0 W/m² | - |
| 1778043601 | 17.22° C | 60% | 1008.1 hPa | 0 mm | 1.79 m/s, 224° | 0 W/m² | - |
| 1778043301 | 17.78° C | 60% | 1008 hPa | 0 mm | 1.79 m/s, 228° | 0 W/m² | - |
| 1778043001 | 17.22° C | 60% | 1008.1 hPa | 0 mm | 1.79 m/s, 244° | 0 W/m² | - |
| 1778042701 | 17.22° C | 60% | 1008.2 hPa | 0 mm | 1.79 m/s, 200° | 0 W/m² | - |
| 1778042400 | 17.22° C | 61% | 1008.2 hPa | 0 mm | 1.79 m/s, 221° | 0 W/m² | - |
| 1778042100 | 17.22° C | 61% | 1008.1 hPa | 0 mm | 1.34 m/s, 236° | 0 W/m² | - |
| 1778041800 | 17.22° C | 61% | 1008.1 hPa | 0 mm | 1.34 m/s, 250° | 0 W/m² | - |
| 1778041499 | 17.22° C | 61% | 1008.2 hPa | 0 mm | 1.34 m/s, 221° | 0 W/m² | - |
| 1778041199 | 17.22° C | 61% | 1008.1 hPa | 0 mm | 1.34 m/s, 225° | 0 W/m² | - |
| 1778040899 | 17.22° C | 61% | 1008.2 hPa | 0 mm | 0.89 m/s, 219° | 0 W/m² | - |
| 1778040599 | 17.22° C | 61% | 1008.2 hPa | 0 mm | 0.89 m/s, 216° | 0 W/m² | - |
| 1778040298 | 17.22° C | 60% | 1008.3 hPa | 0 mm | 1.34 m/s, 207° | 0 W/m² | - |
| 1778039998 | 17.78° C | 59% | 1008.3 hPa | 0 mm | 1.34 m/s, 215° | 0 W/m² | - |
| 1778039698 | 17.22° C | 59% | 1008.2 hPa | 0 mm | 1.34 m/s, 251° | 0 W/m² | - |
| 1778039397 | 17.78° C | 59% | 1008.2 hPa | 0 mm | 1.34 m/s, 204° | 0 W/m² | - |
| 1778039097 | 17.78° C | 58% | 1008.2 hPa | 0 mm | 1.34 m/s, 203° | 0 W/m² | - |
* Rain latest hour (hover to see other rain measurements)
** Current wind speed in m/s (hover to see current wind gust speed)